createdAt,value
2023-05-20T00:02:17.331Z,101200.16
2023-05-20T00:04:44.265Z,101196.91
2023-05-20T00:07:11.144Z,101188.75
2023-05-20T00:09:40.134Z,101183.47
2023-05-20T00:12:07.194Z,101181.63
2023-05-20T00:14:34.189Z,101183.06
2023-05-20T00:17:01.057Z,101170.31
2023-05-20T00:19:28.069Z,101170.56
2023-05-20T00:21:57.599Z,101163.53
2023-05-20T00:24:25.560Z,101168.53
2023-05-20T00:26:52.388Z,101165.84
2023-05-20T00:29:22.426Z,101162.97
2023-05-20T00:31:49.496Z,101163.59
2023-05-20T00:34:16.288Z,101162.50
2023-05-20T00:36:43.237Z,101160.69
2023-05-20T00:39:10.135Z,101156.97
2023-05-20T00:41:36.892Z,101155.28
2023-05-20T00:44:03.744Z,101148.91
2023-05-20T00:46:31.146Z,101139.41
2023-05-20T00:48:58.201Z,101143.75
2023-05-20T00:51:25.135Z,101143.28
2023-05-20T00:53:52.634Z,101129.47
2023-05-20T00:56:22.195Z,101132.88
2023-05-20T00:58:50.864Z,101124.84
2023-05-20T01:01:17.791Z,101124.00
2023-05-20T01:03:44.859Z,101126.44
2023-05-20T01:06:11.697Z,101111.16
2023-05-20T01:08:38.685Z,101112.13
2023-05-20T01:11:20.786Z,101112.63
2023-05-20T01:13:54.474Z,101105.19
2023-05-20T01:16:24.594Z,101103.94
2023-05-20T01:18:57.556Z,101098.03
2023-05-20T01:21:25.131Z,101092.41
2023-05-20T01:23:52.395Z,101097.22
2023-05-20T01:26:21.786Z,101090.47
2023-05-20T01:28:51.237Z,101086.53
2023-05-20T01:31:24.815Z,101087.47
2023-05-20T01:33:58.051Z,101095.56
2023-05-20T01:36:27.288Z,101081.44
2023-05-20T01:38:54.942Z,101078.84
2023-05-20T01:41:25.199Z,101074.63
2023-05-20T01:43:53.661Z,101066.66
2023-05-20T01:46:20.636Z,101077.50
2023-05-20T01:48:48.759Z,101065.78
2023-05-20T01:51:16.180Z,101064.13
2023-05-20T01:53:43.711Z,101060.03
2023-05-20T01:56:10.906Z,101062.78
2023-05-20T01:58:37.985Z,101060.22
2023-05-20T02:01:04.940Z,101056.38
2023-05-20T02:03:31.813Z,101048.34
2023-05-20T02:05:59.706Z,101040.22
2023-05-20T02:08:26.703Z,101036.34
2023-05-20T02:10:53.504Z,101036.34
2023-05-20T02:13:20.542Z,101043.97
2023-05-20T02:15:48.412Z,101044.63
2023-05-20T02:18:18.513Z,101037.81
2023-05-20T02:20:45.401Z,101033.41
2023-05-20T02:23:12.282Z,101024.78
2023-05-20T02:25:39.116Z,101021.59
2023-05-20T02:28:10.611Z,101030.03
2023-05-20T02:30:40.613Z,101023.84
2023-05-20T02:33:08.021Z,101019.31
2023-05-20T02:35:35.200Z,101014.50
2023-05-20T02:38:02.230Z,101015.00
2023-05-20T02:40:29.097Z,101010.06
2023-05-20T02:42:56.144Z,101002.69
2023-05-20T02:45:23.016Z,101001.88
2023-05-20T02:47:51.344Z,101005.66
2023-05-20T02:50:18.297Z,101000.09
2023-05-20T02:52:45.707Z,101000.75
2023-05-20T02:55:12.958Z,101006.09
2023-05-20T02:57:39.894Z,101006.69
2023-05-20T03:00:13.252Z,101008.59
2023-05-20T03:02:40.198Z,100999.09
2023-05-20T03:05:08.134Z,100992.09
2023-05-20T03:07:38.764Z,100987.16
2023-05-20T03:10:08.085Z,100984.31
2023-05-20T03:12:34.972Z,100973.41
2023-05-20T03:15:01.839Z,100974.88
2023-05-20T03:17:28.766Z,100981.44
2023-05-20T03:19:57.043Z,100969.75
2023-05-20T03:22:24.505Z,100972.41
2023-05-20T03:24:52.978Z,100970.19
2023-05-20T03:27:21.572Z,100962.13
2023-05-20T03:29:48.367Z,100959.88
2023-05-20T03:32:15.662Z,100961.09
2023-05-20T03:34:42.534Z,100957.41
2023-05-20T03:37:09.326Z,100955.53
2023-05-20T03:39:36.291Z,100958.44
2023-05-20T03:42:03.625Z,100955.34
2023-05-20T03:44:30.673Z,100954.09
2023-05-20T03:46:57.739Z,100959.28
2023-05-20T03:49:24.785Z,100965.44
2023-05-20T03:51:51.682Z,100962.97
2023-05-20T03:54:18.698Z,100964.81
2023-05-20T03:56:49.948Z,100969.56
2023-05-20T03:59:17.958Z,100967.91
2023-05-20T04:01:46.436Z,100964.00
2023-05-20T04:04:13.357Z,100963.78
2023-05-20T04:06:40.646Z,100961.53
2023-05-20T04:09:07.526Z,100962.94
2023-05-20T04:11:34.566Z,100965.22
2023-05-20T04:14:01.329Z,100963.78
2023-05-20T04:16:29.729Z,100965.19
2023-05-20T04:18:59.193Z,100967.69
2023-05-20T04:21:26.271Z,100969.97
2023-05-20T04:23:53.274Z,100962.91
2023-05-20T04:26:20.770Z,100964.16
2023-05-20T04:28:50.743Z,100965.97
2023-05-20T04:31:18.748Z,100956.91
2023-05-20T04:33:46.864Z,100962.25
2023-05-20T04:36:16.493Z,100956.84
2023-05-20T04:38:44.775Z,100954.34
2023-05-20T04:41:11.836Z,100953.38
2023-05-20T04:43:40.436Z,100955.41
2023-05-20T04:46:08.153Z,100958.81
2023-05-20T04:48:36.047Z,100962.84
2023-05-20T04:51:03.276Z,100962.31
2023-05-20T04:53:31.605Z,100962.84
2023-05-20T04:55:58.450Z,100957.66
2023-05-20T04:58:25.436Z,100968.41
2023-05-20T05:00:53.006Z,100972.91
2023-05-20T05:03:20.107Z,100961.78
2023-05-20T05:05:50.755Z,100962.56
2023-05-20T05:08:17.594Z,100968.91
2023-05-20T05:10:49.438Z,100962.19
2023-05-20T05:13:16.413Z,100964.72
2023-05-20T05:15:43.627Z,100969.25
2023-05-20T05:18:11.671Z,100965.13
2023-05-20T05:20:39.161Z,100970.38
2023-05-20T05:23:06.355Z,100968.34
2023-05-20T05:25:33.600Z,100961.75
2023-05-20T05:28:00.616Z,100965.59
2023-05-20T05:30:28.251Z,100960.69
2023-05-20T05:32:55.217Z,100966.94
2023-05-20T05:35:22.808Z,100962.81
2023-05-20T05:37:49.705Z,100960.41
2023-05-20T05:40:16.990Z,100956.09
2023-05-20T05:42:44.152Z,100961.66
2023-05-20T05:45:11.552Z,100956.31
2023-05-20T05:47:38.665Z,100958.56
2023-05-20T05:50:06.202Z,100955.22
2023-05-20T05:52:34.366Z,100950.53
2023-05-20T05:55:03.132Z,100947.03
2023-05-20T05:57:31.132Z,100948.28
2023-05-20T05:59:58.833Z,100948.84
2023-05-20T06:02:26.984Z,100946.44
2023-05-20T06:04:54.316Z,100946.63
2023-05-20T06:07:21.581Z,100944.63
2023-05-20T06:09:50.298Z,100947.72
2023-05-20T06:12:17.169Z,100951.63
2023-05-20T06:14:44.103Z,100957.97
2023-05-20T06:17:11.003Z,100952.44
2023-05-20T06:19:38.190Z,100956.13
2023-05-20T06:22:05.277Z,100943.97
2023-05-20T06:24:33.068Z,100945.44
2023-05-20T06:27:01.521Z,100949.94
2023-05-20T06:29:29.172Z,100955.50
2023-05-20T06:31:56.011Z,100946.25
2023-05-20T06:34:23.731Z,100954.50
2023-05-20T06:36:50.729Z,100952.03
2023-05-20T06:39:17.522Z,100956.16
2023-05-20T06:41:45.987Z,100952.06
2023-05-20T06:44:19.692Z,100949.88
2023-05-20T06:46:59.481Z,100948.19
2023-05-20T06:49:26.437Z,100944.91
2023-05-20T06:51:54.281Z,100948.00
2023-05-20T06:54:22.079Z,100943.88
2023-05-20T06:56:49.308Z,100942.44
2023-05-20T06:59:16.182Z,100940.19
2023-05-20T07:01:43.612Z,100948.81
2023-05-20T07:04:10.833Z,100948.19
2023-05-20T07:06:38.171Z,100942.00
2023-05-20T07:09:05.635Z,100942.00
2023-05-20T07:11:33.154Z,100944.25
2023-05-20T07:14:00.486Z,100949.41
2023-05-20T07:16:30.193Z,100945.84
2023-05-20T07:18:57.186Z,100938.38
2023-05-20T07:21:24.428Z,100934.06
2023-05-20T07:24:11.202Z,100940.25
2023-05-20T07:26:38.226Z,100933.59
2023-05-20T07:29:05.340Z,100931.75
2023-05-20T07:31:33.043Z,100930.88
2023-05-20T07:33:59.958Z,100940.94
2023-05-20T07:36:30.789Z,100927.91
2023-05-20T07:39:04.739Z,100937.97
2023-05-20T07:41:35.753Z,100933.56
2023-05-20T07:44:05.420Z,100929.47
2023-05-20T07:46:34.771Z,100926.72
2023-05-20T07:49:01.701Z,100935.81
2023-05-20T07:51:28.575Z,100935.56
2023-05-20T07:53:55.608Z,100931.03
2023-05-20T07:56:22.558Z,100932.91
2023-05-20T07:58:54.934Z,100928.94
2023-05-20T08:01:23.267Z,100921.66
2023-05-20T08:03:50.745Z,100917.13
2023-05-20T08:06:21.114Z,100916.66
2023-05-20T08:08:48.414Z,100912.16
2023-05-20T08:11:23.969Z,100915.41
2023-05-20T08:13:50.803Z,100920.13
2023-05-20T08:16:18.052Z,100914.47
2023-05-20T08:18:46.115Z,100914.00
2023-05-20T08:21:14.177Z,100918.13
2023-05-20T08:23:41.351Z,100911.84
2023-05-20T08:26:08.248Z,100916.09
2023-05-20T08:28:38.335Z,100899.53
2023-05-20T08:31:05.666Z,100902.81
2023-05-20T08:33:33.283Z,100896.47
2023-05-20T08:36:00.835Z,100882.41
2023-05-20T08:38:28.153Z,100896.69
2023-05-20T08:40:58.291Z,100896.66
2023-05-20T08:43:27.037Z,100900.91
2023-05-20T08:45:55.019Z,100903.44
2023-05-20T08:48:26.669Z,100899.94
2023-05-20T08:50:57.190Z,100897.25
2023-05-20T08:53:24.209Z,100903.41
2023-05-20T08:56:02.816Z,100899.19
2023-05-20T08:58:30.651Z,100901.09
2023-05-20T09:00:58.995Z,100892.44
2023-05-20T09:03:25.861Z,100888.91
2023-05-20T09:06:07.642Z,100881.75
2023-05-20T09:08:34.545Z,100888.34
2023-05-20T09:11:01.626Z,100888.69
2023-05-20T09:13:32.756Z,100888.78
2023-05-20T09:16:01.708Z,100887.50
2023-05-20T09:18:29.447Z,100890.31
2023-05-20T09:20:57.057Z,100880.47
2023-05-20T09:23:25.731Z,100883.84
2023-05-20T09:25:53.071Z,100885.75
2023-05-20T09:28:25.243Z,100881.88
2023-05-20T09:30:58.142Z,100885.25
2023-05-20T09:33:32.144Z,100879.50
2023-05-20T09:36:07.409Z,100879.00
2023-05-20T09:38:39.072Z,100883.94
2023-05-20T09:41:08.758Z,100892.53
2023-05-20T09:43:37.324Z,100883.91
2023-05-20T09:46:04.801Z,100877.59
2023-05-20T09:48:34.173Z,100879.06
2023-05-20T09:51:02.596Z,100878.47
2023-05-20T09:53:29.907Z,100880.09
2023-05-20T09:55:57.009Z,100890.94
2023-05-20T09:58:24.951Z,100888.59
2023-05-20T10:00:54.074Z,100888.31
2023-05-20T10:03:25.133Z,100884.69
2023-05-20T10:06:10.108Z,100888.31
2023-05-20T10:08:58.425Z,100904.28
2023-05-20T10:11:37.245Z,100905.59
2023-05-20T10:14:20.796Z,100905.34
2023-05-20T10:17:09.086Z,100900.19
2023-05-20T10:19:36.300Z,100905.06
2023-05-20T10:22:05.835Z,100910.53
2023-05-20T10:24:38.302Z,100911.25
2023-05-20T10:27:08.909Z,100911.06
2023-05-20T10:30:02.410Z,100923.38
2023-05-20T10:32:34.319Z,100913.16
2023-05-20T10:35:05.100Z,100911.47
2023-05-20T10:37:43.979Z,100910.81
2023-05-20T10:40:13.199Z,100908.06
2023-05-20T10:42:40.678Z,100908.38
2023-05-20T10:45:08.417Z,100912.88
2023-05-20T10:47:36.405Z,100906.91
2023-05-20T10:50:05.940Z,100909.06
2023-05-20T10:52:38.891Z,100900.34
2023-05-20T10:55:06.573Z,100900.00
2023-05-20T10:57:34.503Z,100898.53
2023-05-20T11:00:02.104Z,100899.09
2023-05-20T11:02:29.368Z,100893.78
2023-05-20T11:04:58.253Z,100897.53
2023-05-20T11:07:29.768Z,100898.38
2023-05-20T11:09:57.624Z,100896.09
2023-05-20T11:12:26.727Z,100889.84
2023-05-20T11:14:53.993Z,100884.47
2023-05-20T11:17:21.110Z,100890.97
2023-05-20T11:19:48.912Z,100880.47
2023-05-20T11:22:16.037Z,100883.47
2023-05-20T11:24:42.826Z,100885.59
2023-05-20T11:27:09.762Z,100876.41
2023-05-20T11:29:37.092Z,100873.09
2023-05-20T11:32:04.234Z,100876.38
2023-05-20T11:34:36.500Z,100871.47
2023-05-20T11:37:07.796Z,100878.59
2023-05-20T11:39:34.743Z,100877.91
2023-05-20T11:42:01.612Z,100873.44
2023-05-20T11:44:28.490Z,100874.09
2023-05-20T11:47:01.416Z,100872.34
2023-05-20T11:49:28.790Z,100874.72
2023-05-20T11:51:56.985Z,100877.56
2023-05-20T11:54:24.948Z,100873.59
2023-05-20T11:56:53.975Z,100879.66
2023-05-20T11:59:23.841Z,100886.28
2023-05-20T12:01:50.636Z,100886.03
2023-05-20T12:04:18.439Z,100889.56
2023-05-20T12:06:45.777Z,100880.47
2023-05-20T12:09:14.292Z,100882.44
2023-05-20T12:11:41.926Z,100883.94
2023-05-20T12:14:09.454Z,100877.25
2023-05-20T12:16:37.805Z,100874.97
2023-05-20T12:19:05.048Z,100876.47
2023-05-20T12:21:32.139Z,100874.38
2023-05-20T12:24:02.181Z,100884.91
2023-05-20T12:26:30.202Z,100873.06
2023-05-20T12:28:57.324Z,100879.53
2023-05-20T12:31:25.304Z,100873.75
2023-05-20T12:33:52.356Z,100872.50
2023-05-20T12:36:19.803Z,100873.19
2023-05-20T12:38:47.249Z,100873.84
2023-05-20T12:41:14.204Z,100871.13
2023-05-20T12:43:40.991Z,100870.81
2023-05-20T12:46:07.852Z,100872.19
2023-05-20T12:48:34.814Z,100874.13
2023-05-20T12:51:01.638Z,100868.41
2023-05-20T12:53:28.498Z,100875.09
2023-05-20T12:55:55.609Z,100867.72
2023-05-20T12:58:22.552Z,100867.56
2023-05-20T13:00:49.434Z,100866.00
2023-05-20T13:03:16.527Z,100866.84
2023-05-20T13:05:43.329Z,100871.38
2023-05-20T13:08:11.073Z,100865.50
2023-05-20T13:10:38.261Z,100868.00
2023-05-20T13:13:05.095Z,100871.53
2023-05-20T13:15:33.393Z,100864.88
2023-05-20T13:18:01.590Z,100875.56
2023-05-20T13:20:29.763Z,100873.81
2023-05-20T13:22:56.603Z,100883.53
2023-05-20T13:25:23.506Z,100874.13
2023-05-20T13:27:50.299Z,100876.97
2023-05-20T13:30:17.183Z,100872.88
2023-05-20T13:32:44.106Z,100864.03
2023-05-20T13:35:11.093Z,100865.25
2023-05-20T13:37:38.022Z,100868.69
2023-05-20T13:40:05.639Z,100867.66
2023-05-20T13:42:32.549Z,100866.75
2023-05-20T13:44:59.366Z,100862.31
2023-05-20T13:47:26.244Z,100866.00
2023-05-20T13:49:53.107Z,100857.81
2023-05-20T13:52:19.933Z,100859.22
2023-05-20T13:54:48.723Z,100851.31
2023-05-20T13:57:16.220Z,100855.50
2023-05-20T13:59:43.155Z,100857.53
2023-05-20T14:02:10.226Z,100862.84
2023-05-20T14:04:41.053Z,100858.16
2023-05-20T14:07:09.834Z,100856.75
2023-05-20T14:09:36.922Z,100862.03
2023-05-20T14:12:04.880Z,100857.78
2023-05-20T14:14:32.072Z,100865.06
2023-05-20T14:16:58.857Z,100869.03
2023-05-20T14:19:27.154Z,100867.03
2023-05-20T14:21:54.182Z,100864.84
2023-05-20T14:24:23.484Z,100871.56
2023-05-20T14:26:50.848Z,100871.22
2023-05-20T14:29:17.796Z,100875.41
2023-05-20T14:31:47.237Z,100877.97
2023-05-20T14:34:17.025Z,100877.63
2023-05-20T14:36:44.311Z,100878.31
2023-05-20T14:39:11.120Z,100881.09
2023-05-20T14:41:37.988Z,100883.97
2023-05-20T14:44:05.009Z,100887.88
2023-05-20T14:46:32.573Z,100889.28
2023-05-20T14:49:00.146Z,100890.09
2023-05-20T14:51:26.962Z,100888.38
2023-05-20T14:53:53.746Z,100882.31
2023-05-20T14:56:20.804Z,100882.97
2023-05-20T14:58:47.714Z,100887.47
2023-05-20T15:01:14.721Z,100885.56
2023-05-20T15:03:41.649Z,100884.63
2023-05-20T15:06:08.595Z,100882.97
2023-05-20T15:08:35.740Z,100888.97
2023-05-20T15:11:02.741Z,100895.34
2023-05-20T15:13:29.560Z,100891.09
2023-05-20T15:15:56.560Z,100889.03
2023-05-20T15:18:23.312Z,100883.88
2023-05-20T15:20:50.161Z,100888.13
2023-05-20T15:23:18.195Z,100886.28
2023-05-20T15:25:45.115Z,100885.66
2023-05-20T15:28:11.953Z,100887.06
2023-05-20T15:30:38.813Z,100891.19
2023-05-20T15:33:05.787Z,100888.38
2023-05-20T15:35:32.622Z,100893.69
2023-05-20T15:37:59.478Z,100893.13
2023-05-20T15:40:26.308Z,100891.63
2023-05-20T15:42:53.644Z,100897.75
2023-05-20T15:45:20.796Z,100897.38
2023-05-20T15:47:47.762Z,100896.78
2023-05-20T15:50:14.547Z,100908.19
2023-05-20T15:52:41.516Z,100902.78
2023-05-20T15:55:09.261Z,100904.72
2023-05-20T15:57:36.058Z,100903.16
2023-05-20T16:00:05.848Z,100913.16
2023-05-20T16:02:36.065Z,100917.09
2023-05-20T16:05:03.995Z,100912.72
2023-05-20T16:07:31.301Z,100908.97
2023-05-20T16:09:58.334Z,100918.34
2023-05-20T16:12:25.161Z,100926.19
2023-05-20T16:14:51.929Z,100918.03
2023-05-20T16:17:21.270Z,100921.16
2023-05-20T16:19:48.938Z,100925.06
2023-05-20T16:22:16.484Z,100925.31
2023-05-20T16:24:43.328Z,100924.38
2023-05-20T16:27:11.341Z,100927.06
2023-05-20T16:29:41.210Z,100922.59
2023-05-20T16:32:08.167Z,100924.28
2023-05-20T16:34:35.184Z,100926.94
2023-05-20T16:37:02.094Z,100926.84
2023-05-20T16:39:28.945Z,100920.97
2023-05-20T16:41:56.011Z,100926.03
2023-05-20T16:44:22.900Z,100937.34
2023-05-20T16:46:50.828Z,100949.06
2023-05-20T16:49:18.802Z,100944.63
2023-05-20T16:51:46.936Z,100942.84
2023-05-20T16:54:13.784Z,100949.06
2023-05-20T16:56:40.627Z,100944.16
2023-05-20T16:59:07.412Z,100954.94
2023-05-20T17:01:34.435Z,100953.19
2023-05-20T17:04:01.346Z,100952.59
2023-05-20T17:06:28.217Z,100957.09
2023-05-20T17:08:55.097Z,100959.53
2023-05-20T17:11:22.576Z,100958.69
2023-05-20T17:13:49.457Z,100961.66
2023-05-20T17:16:16.249Z,100967.53
2023-05-20T17:18:43.410Z,100965.56
2023-05-20T17:21:10.266Z,100964.94
2023-05-20T17:23:37.058Z,100970.59
2023-05-20T17:26:04.143Z,100966.00
2023-05-20T17:28:31.052Z,100963.53
2023-05-20T17:30:57.899Z,100967.66
2023-05-20T17:33:24.934Z,100970.00
2023-05-20T17:35:51.794Z,100961.53
2023-05-20T17:38:18.632Z,100968.38
2023-05-20T17:40:45.467Z,100969.50
2023-05-20T17:43:12.279Z,100970.00
2023-05-20T17:45:39.130Z,100976.09
2023-05-20T17:48:08.765Z,100974.44
2023-05-20T17:50:37.810Z,100973.03
2023-05-20T17:53:04.640Z,100976.31
2023-05-20T17:55:32.893Z,100973.03
2023-05-20T17:58:01.873Z,100975.97
2023-05-20T18:00:28.876Z,100976.91
2023-05-20T18:02:58.637Z,100980.31
2023-05-20T18:05:26.007Z,100982.31
2023-05-20T18:07:53.063Z,100981.25
2023-05-20T18:10:20.076Z,100985.59
2023-05-20T18:12:46.865Z,100982.19
2023-05-20T18:15:14.187Z,100984.31
2023-05-20T18:17:41.079Z,100973.94
2023-05-20T18:20:09.716Z,100979.34
2023-05-20T18:22:36.629Z,100972.56
2023-05-20T18:25:03.706Z,100980.88
2023-05-20T18:27:31.877Z,100976.88
2023-05-20T18:29:58.708Z,100968.69
2023-05-20T18:32:28.561Z,100968.69
2023-05-20T18:34:55.465Z,100959.19
2023-05-20T18:37:22.272Z,100961.75
2023-05-20T18:39:49.097Z,100960.00
2023-05-20T18:42:15.971Z,100957.28
2023-05-20T18:44:43.474Z,100963.38
2023-05-20T18:47:10.744Z,100971.47
2023-05-20T18:49:37.635Z,100971.69
2023-05-20T18:52:04.655Z,100970.03
2023-05-20T18:54:31.460Z,100972.16
2023-05-20T18:56:58.329Z,100969.09
2023-05-20T18:59:25.360Z,100967.44
2023-05-20T19:01:52.310Z,100970.38
2023-05-20T19:04:19.085Z,100963.56
2023-05-20T19:06:45.862Z,100971.66
2023-05-20T19:09:12.703Z,100968.97
2023-05-20T19:11:39.467Z,100964.00
2023-05-20T19:14:07.549Z,100957.78
2023-05-20T19:16:34.453Z,100957.19
2023-05-20T19:19:01.464Z,100961.53
2023-05-20T19:21:29.547Z,100953.91
2023-05-20T19:23:56.409Z,100962.25
2023-05-20T19:26:24.691Z,100953.09
2023-05-20T19:28:51.592Z,100962.25
2023-05-20T19:31:21.263Z,100960.81
2023-05-20T19:33:50.125Z,100971.00
2023-05-20T19:36:17.434Z,100964.22
2023-05-20T19:38:44.663Z,100966.91
2023-05-20T19:41:12.827Z,100972.75
2023-05-20T19:43:40.119Z,100978.69
2023-05-20T19:46:06.981Z,100980.41
2023-05-20T19:48:34.083Z,100985.47
2023-05-20T19:51:01.626Z,100984.25
2023-05-20T19:53:28.383Z,100990.94
2023-05-20T19:55:55.189Z,100992.47
2023-05-20T19:58:22.543Z,100990.22
2023-05-20T20:00:49.502Z,100992.03
2023-05-20T20:03:16.338Z,100994.97
2023-05-20T20:05:43.238Z,101000.69
2023-05-20T20:08:10.200Z,101006.78
2023-05-20T20:10:37.727Z,101011.78
2023-05-20T20:13:04.563Z,101003.34
2023-05-20T20:15:32.976Z,101006.22
2023-05-20T20:18:02.946Z,101000.31
2023-05-20T20:20:29.731Z,101004.72
2023-05-20T20:22:59.611Z,101000.28
2023-05-20T20:25:26.854Z,101005.19
2023-05-20T20:27:53.779Z,100998.22
2023-05-20T20:30:21.770Z,101004.97
2023-05-20T20:32:48.620Z,100999.53
2023-05-20T20:35:15.951Z,101002.66
2023-05-20T20:37:44.730Z,101001.16
2023-05-20T20:40:13.792Z,101001.81
2023-05-20T20:42:50.132Z,101014.25
2023-05-20T20:45:17.090Z,101016.47
2023-05-20T20:47:44.751Z,101016.25
2023-05-20T20:50:11.938Z,101012.09
2023-05-20T20:52:39.931Z,101009.25
2023-05-20T20:55:07.176Z,101017.56
2023-05-20T20:57:35.224Z,101018.13
2023-05-20T21:00:15.984Z,101015.91
2023-05-20T21:02:44.475Z,101016.41
2023-05-20T21:05:11.406Z,101020.31
2023-05-20T21:07:43.542Z,101018.44
2023-05-20T21:10:10.654Z,101021.50
2023-05-20T21:12:37.410Z,101019.19
2023-05-20T21:15:04.756Z,101021.50
2023-05-20T21:17:31.695Z,101029.03
2023-05-20T21:19:58.615Z,101020.09
2023-05-20T21:22:25.530Z,101016.13
2023-05-20T21:24:52.324Z,101010.88
2023-05-20T21:27:19.113Z,101018.38
2023-05-20T21:29:45.916Z,101019.34
2023-05-20T21:32:14.301Z,101012.94
2023-05-20T21:34:41.090Z,101018.91
2023-05-20T21:37:07.903Z,101012.50
2023-05-20T21:39:35.791Z,101010.84
2023-05-20T21:42:02.778Z,101006.06
2023-05-20T21:44:32.267Z,101008.63
2023-05-20T21:46:59.564Z,101000.63
2023-05-20T21:49:26.379Z,101004.09
2023-05-20T21:51:53.469Z,101003.81
2023-05-20T21:54:20.346Z,101004.75
2023-05-20T21:56:47.141Z,100999.56
2023-05-20T21:59:14.825Z,101005.34
2023-05-20T22:01:43.757Z,100999.06
2023-05-20T22:04:11.967Z,101000.34
2023-05-20T22:06:39.791Z,100999.84
2023-05-20T22:09:06.720Z,101006.88
2023-05-20T22:11:33.844Z,101008.03
2023-05-20T22:14:02.192Z,101005.41
2023-05-20T22:16:29.071Z,101002.94
2023-05-20T22:18:57.128Z,101001.84
2023-05-20T22:21:24.655Z,101003.84
2023-05-20T22:23:51.448Z,100996.19
2023-05-20T22:26:19.753Z,101006.84
2023-05-20T22:28:46.649Z,101006.44
2023-05-20T22:31:13.684Z,101001.19
2023-05-20T22:33:42.080Z,101007.25
2023-05-20T22:36:09.652Z,101001.28
2023-05-20T22:38:37.694Z,101006.28
2023-05-20T22:41:04.735Z,101005.28
2023-05-20T22:43:31.527Z,100999.50
2023-05-20T22:45:58.493Z,101005.56
2023-05-20T22:48:25.419Z,101004.19
2023-05-20T22:50:54.124Z,100995.41
2023-05-20T22:53:21.039Z,101001.78
2023-05-20T22:55:48.086Z,100990.78
2023-05-20T22:58:15.219Z,100997.53
2023-05-20T23:00:42.138Z,100991.28
2023-05-20T23:03:08.990Z,100987.06
2023-05-20T23:05:36.218Z,100985.63
2023-05-20T23:08:03.422Z,100992.25
2023-05-20T23:10:30.354Z,100992.25
2023-05-20T23:12:58.113Z,100996.88
2023-05-20T23:15:25.386Z,100995.63
2023-05-20T23:17:52.404Z,100991.91
2023-05-20T23:20:19.348Z,100990.41
2023-05-20T23:22:46.442Z,100983.34
2023-05-20T23:25:13.402Z,100987.69
2023-05-20T23:27:40.844Z,100989.00
2023-05-20T23:30:08.669Z,100985.75
2023-05-20T23:32:35.575Z,100981.03
2023-05-20T23:35:06.733Z,100984.13
2023-05-20T23:37:34.553Z,100983.78
2023-05-20T23:40:01.349Z,100984.81
2023-05-20T23:42:29.046Z,100979.88
2023-05-20T23:44:55.936Z,100978.81
2023-05-20T23:47:25.909Z,100981.28
2023-05-20T23:49:58.643Z,100974.69
2023-05-20T23:52:28.227Z,100968.91
2023-05-20T23:54:56.437Z,100964.59
2023-05-20T23:57:25.466Z,100968.72
2023-05-20T23:59:52.795Z,100960.84
